Time;durP1;ratioP1;P1;durP2;ratioP2;P2;SDS_P1;SDS_P2;PMS_P1;PMS_P2;Temp;Humidity;BMP_temperature;BMP_pressure;BME280_temperature;BME280_humidity;BME280_pressure;Samples;Min_cycle;Max_cycle;Signal;HPM_P1;HPM_P2
2021/05/07 00:01:38;;;;;;;8.88;5.18;;;11.10;99.90;;;;;;5116680;28;20412;-66
2021/05/07 00:04:04;;;;;;;6.70;4.57;;;11.10;99.90;;;;;;5116161;28;20206;-66
2021/05/07 00:06:29;;;;;;;6.17;5.10;;;11.00;99.90;;;;;;5116594;28;20187;-66
2021/05/07 00:08:55;;;;;;;6.77;5.07;;;10.90;99.90;;;;;;5114751;28;20420;-68
2021/05/07 00:11:21;;;;;;;7.60;5.40;;;10.90;99.90;;;;;;5116474;28;20690;-68
2021/05/07 00:13:48;;;;;;;6.10;4.83;;;10.90;99.90;;;;;;5115971;28;20608;-67
2021/05/07 00:16:14;;;;;;;6.80;4.35;;;10.90;99.90;;;;;;5116304;28;20475;-66
2021/05/07 00:18:40;;;;;;;6.45;5.20;;;10.80;99.90;;;;;;5115882;28;20593;-66
2021/05/07 00:21:06;;;;;;;7.00;5.03;;;10.80;99.90;;;;;;5116192;28;20210;-67
2021/05/07 00:23:34;;;;;;;8.23;5.80;;;10.80;99.90;;;;;;5115882;28;20212;-66
2021/05/07 00:26:01;;;;;;;6.80;5.05;;;10.80;99.90;;;;;;5097562;28;20504;-66
2021/05/07 00:28:27;;;;;;;8.88;5.43;;;10.80;99.90;;;;;;5115746;28;20199;-67
2021/05/07 00:30:52;;;;;;;8.80;5.50;;;10.80;99.90;;;;;;5115947;28;20655;-67
2021/05/07 00:33:19;;;;;;;7.40;5.20;;;10.80;99.90;;;;;;5115616;28;20192;-67
2021/05/07 00:35:45;;;;;;;8.75;4.47;;;10.80;99.90;;;;;;5097494;28;20176;-66
2021/05/07 00:38:10;;;;;;;7.05;4.57;;;10.80;99.90;;;;;;5115527;28;20373;-67
2021/05/07 00:40:37;;;;;;;9.20;4.80;;;10.80;99.90;;;;;;5114291;28;20179;-65
2021/05/07 00:43:02;;;;;;;8.13;5.47;;;10.80;99.90;;;;;;5114118;28;20552;-68
2021/05/07 00:45:31;;;;;;;8.70;5.33;;;10.80;99.90;;;;;;5115506;28;20259;-68
2021/05/07 00:48:02;;;;;;;9.30;5.68;;;10.90;99.90;;;;;;5115281;28;20685;-66
2021/05/07 00:50:35;;;;;;;8.63;5.95;;;10.90;99.90;;;;;;5115492;28;20175;-67
2021/05/07 00:53:02;;;;;;;8.43;4.90;;;11.00;99.90;;;;;;5115247;28;20245;-67
2021/05/07 00:55:29;;;;;;;7.53;5.53;;;11.00;99.90;;;;;;5115118;28;20625;-66
2021/05/07 00:57:55;;;;;;;8.40;5.50;;;10.90;99.90;;;;;;5114042;28;20260;-67
2021/05/07 01:00:22;;;;;;;9.57;6.43;;;11.00;99.90;;;;;;5115240;28;20184;-68
2021/05/07 01:02:48;;;;;;;6.57;5.03;;;11.00;99.90;;;;;;5096766;28;20329;-67
2021/05/07 01:05:13;;;;;;;9.57;4.50;;;11.00;99.90;;;;;;5115158;28;20624;-67
2021/05/07 01:07:39;;;;;;;7.23;5.10;;;11.00;99.90;;;;;;5096514;28;20286;-67
2021/05/07 01:10:07;;;;;;;11.47;6.10;;;10.90;99.90;;;;;;5115045;28;20263;-67
2021/05/07 01:12:35;;;;;;;10.18;5.97;;;11.00;99.90;;;;;;5114842;28;20404;-66
2021/05/07 01:15:09;;;;;;;7.82;5.32;;;10.90;99.90;;;;;;5114971;28;20176;-67
2021/05/07 01:17:39;;;;;;;6.97;4.70;;;10.80;99.90;;;;;;5096529;28;20223;-69
2021/05/07 01:20:18;;;;;;;7.95;5.10;;;10.80;99.90;;;;;;5114960;28;20203;-66
2021/05/07 01:22:47;;;;;;;8.32;5.18;;;10.80;99.90;;;;;;5114677;28;20275;-67
2021/05/07 01:25:16;;;;;;;8.43;5.07;;;10.80;99.90;;;;;;5096485;28;20184;-67
2021/05/07 01:27:43;;;;;;;10.05;5.90;;;10.80;99.90;;;;;;5096433;28;20291;-68
2021/05/07 01:30:21;;;;;;;8.10;5.35;;;10.90;99.90;;;;;;5114735;28;20554;-66
2021/05/07 01:32:47;;;;;;;11.10;5.28;;;10.90;99.90;;;;;;5114354;28;20195;-68
2021/05/07 01:35:19;;;;;;;10.15;5.25;;;11.00;99.90;;;;;;5114649;28;20176;-67
2021/05/07 01:37:46;;;;;;;10.55;6.53;;;11.00;99.90;;;;;;5096132;28;20272;-67
2021/05/07 01:40:22;;;;;;;8.30;5.35;;;11.10;99.90;;;;;;5114563;28;20262;-66
2021/05/07 01:42:50;;;;;;;6.68;4.53;;;11.10;99.90;;;;;;5113073;28;20199;-66
2021/05/07 01:45:17;;;;;;;8.50;5.18;;;11.10;99.90;;;;;;5096104;28;20190;-67
2021/05/07 01:47:43;;;;;;;7.32;5.50;;;11.10;99.90;;;;;;5095962;28;20669;-69
2021/05/07 01:50:11;;;;;;;10.48;6.05;;;11.10;99.90;;;;;;5096127;28;20233;-66
2021/05/07 01:52:37;;;;;;;8.00;5.10;;;11.10;99.90;;;;;;5114136;28;20206;-66
2021/05/07 01:55:06;;;;;;;6.30;5.33;;;11.10;99.90;;;;;;5114097;28;20183;-66
2021/05/07 01:57:34;;;;;;;7.57;5.28;;;11.20;99.90;;;;;;5114263;28;20207;-67
2021/05/07 02:00:00;;;;;;;8.77;4.80;;;11.20;99.90;;;;;;5095900;28;20242;-68
2021/05/07 02:02:26;;;;;;;8.50;5.10;;;11.10;99.90;;;;;;5114199;28;20252;-66
2021/05/07 02:04:51;;;;;;;10.93;5.30;;;11.20;99.90;;;;;;5114170;28;20244;-66
2021/05/07 02:07:18;;;;;;;9.03;5.83;;;11.20;99.90;;;;;;5112777;28;20412;-66
2021/05/07 02:09:45;;;;;;;8.25;5.05;;;11.30;99.90;;;;;;5095548;28;20228;-66
2021/05/07 02:12:10;;;;;;;6.43;4.93;;;11.40;99.90;;;;;;5114053;28;20164;-66
2021/05/07 02:14:37;;;;;;;6.07;4.70;;;11.40;99.90;;;;;;5113973;28;20187;-68
2021/05/07 02:17:04;;;;;;;5.55;4.35;;;11.40;99.90;;;;;;5113881;28;20258;-67
2021/05/07 02:19:29;;;;;;;6.35;4.07;;;11.40;99.90;;;;;;5113771;28;20199;-66
2021/05/07 02:21:55;;;;;;;6.23;4.27;;;11.40;99.90;;;;;;5114444;28;20172;-66
2021/05/07 02:24:21;;;;;;;6.33;4.30;;;11.50;99.90;;;;;;5114048;28;20590;-66
2021/05/07 02:26:47;;;;;;;7.50;5.30;;;11.50;99.90;;;;;;5114476;28;20207;-66
2021/05/07 02:29:12;;;;;;;7.60;4.43;;;11.50;99.90;;;;;;5113874;28;20192;-66
2021/05/07 02:31:38;;;;;;;7.53;4.30;;;11.50;99.90;;;;;;5112795;28;20420;-68
2021/05/07 02:34:04;;;;;;;6.43;4.60;;;11.40;99.90;;;;;;5113865;28;20240;-65
2021/05/07 02:36:30;;;;;;;7.20;4.00;;;11.40;99.90;;;;;;5095666;28;20262;-66
2021/05/07 02:38:55;;;;;;;7.00;4.23;;;11.40;99.90;;;;;;5113775;28;20375;-67
2021/05/07 02:41:21;;;;;;;5.30;4.20;;;11.50;99.90;;;;;;5114140;28;20462;-67
2021/05/07 02:43:46;;;;;;;5.80;4.10;;;11.50;99.90;;;;;;5113626;28;20195;-66
2021/05/07 02:46:14;;;;;;;6.43;4.17;;;11.50;99.90;;;;;;5114010;28;20536;-66
2021/05/07 02:48:41;;;;;;;5.45;4.43;;;11.40;99.90;;;;;;5112317;28;20187;-67
2021/05/07 02:51:07;;;;;;;5.72;4.15;;;11.40;99.90;;;;;;5113987;28;20199;-67
2021/05/07 02:53:32;;;;;;;6.83;4.40;;;11.30;99.90;;;;;;5113647;28;20188;-67
2021/05/07 02:55:58;;;;;;;10.47;5.50;;;11.40;99.90;;;;;;5113514;28;20223;-66
2021/05/07 02:58:23;;;;;;;6.90;4.33;;;11.30;99.90;;;;;;5112385;28;20277;-66
2021/05/07 03:00:49;;;;;;;5.67;4.43;;;11.40;99.90;;;;;;5113862;28;20200;-66
2021/05/07 03:03:15;;;;;;;6.30;4.93;;;11.40;99.90;;;;;;5113502;28;20192;-68
2021/05/07 03:05:41;;;;;;;8.60;5.10;;;11.40;99.90;;;;;;5113825;28;20431;-66
2021/05/07 03:08:06;;;;;;;7.73;4.80;;;11.40;99.90;;;;;;5113506;28;20248;-67
2021/05/07 03:10:32;;;;;;;6.97;4.77;;;11.40;99.90;;;;;;5112345;28;20270;-66
2021/05/07 03:12:57;;;;;;;6.90;5.07;;;11.40;99.90;;;;;;5112242;28;20187;-67
2021/05/07 03:15:23;;;;;;;9.17;4.87;;;11.40;99.90;;;;;;5113718;28;20195;-67
2021/05/07 03:17:49;;;;;;;6.73;4.77;;;11.40;99.90;;;;;;5113372;28;20684;-68
2021/05/07 03:20:15;;;;;;;9.68;5.45;;;11.40;99.90;;;;;;5114692;28;20180;-67
2021/05/07 03:22:41;;;;;;;7.50;4.13;;;11.40;99.90;;;;;;5117030;28;20184;-66
2021/05/07 03:25:06;;;;;;;9.30;6.20;;;11.50;99.90;;;;;;5117156;28;20180;-67
2021/05/07 03:27:32;;;;;;;9.63;5.77;;;11.50;99.90;;;;;;5117080;28;20176;-66
2021/05/07 03:29:57;;;;;;;6.20;4.27;;;11.50;99.90;;;;;;5115663;28;20412;-68
2021/05/07 03:32:23;;;;;;;11.00;6.20;;;11.50;99.90;;;;;;5116818;28;20633;-67
2021/05/07 03:34:49;;;;;;;6.87;5.37;;;11.50;99.90;;;;;;5116791;28;20168;-66
2021/05/07 03:37:16;;;;;;;8.57;5.95;;;11.60;99.90;;;;;;5116748;28;20543;-66
2021/05/07 03:39:43;;;;;;;5.95;4.95;;;11.70;99.90;;;;;;5116706;28;20262;-66
2021/05/07 03:42:09;;;;;;;9.82;5.35;;;11.80;99.90;;;;;;5116776;28;20600;-68
2021/05/07 03:44:35;;;;;;;11.50;5.80;;;11.80;99.90;;;;;;5116654;28;20227;-67
2021/05/07 03:47:01;;;;;;;9.10;5.83;;;11.80;99.90;;;;;;5115578;28;20275;-69
2021/05/07 03:49:30;;;;;;;7.25;5.70;;;11.90;99.90;;;;;;5115033;27;20801;-66
2021/05/07 03:51:57;;;;;;;8.45;4.88;;;11.90;99.90;;;;;;5134849;27;20198;-66
2021/05/07 03:54:23;;;;;;;8.07;5.10;;;11.90;99.90;;;;;;5111128;28;20199;-67
2021/05/07 03:56:48;;;;;;;10.53;5.63;;;11.90;99.90;;;;;;5099504;28;20243;-67
2021/05/07 03:59:14;;;;;;;8.07;5.57;;;12.00;99.90;;;;;;5106086;28;20554;-67
2021/05/07 04:01:40;;;;;;;8.45;5.07;;;12.10;99.90;;;;;;5099551;28;20663;-66
2021/05/07 04:04:07;;;;;;;9.50;5.63;;;12.10;99.90;;;;;;5095811;28;20277;-67
2021/05/07 04:06:33;;;;;;;9.35;5.60;;;12.20;99.90;;;;;;5120442;27;20698;-66
2021/05/07 04:09:21;;;;;;;8.93;5.70;;;12.30;99.90;;;;;;5115929;28;20261;-68
2021/05/07 04:11:58;;;;;;;11.65;7.00;;;12.30;99.90;;;;;;5131792;27;20222;-67
2021/05/07 04:14:24;;;;;;;9.02;5.90;;;12.30;99.90;;;;;;5114416;28;20203;-65
2021/05/07 04:16:49;;;;;;;7.33;5.63;;;12.40;99.90;;;;;;5120312;27;20226;-68
2021/05/07 04:19:16;;;;;;;9.50;5.83;;;12.50;99.90;;;;;;5128692;27;20234;-68
2021/05/07 04:21:42;;;;;;;9.10;5.47;;;12.40;99.90;;;;;;5116195;28;20184;-66
2021/05/07 04:24:08;;;;;;;7.40;5.10;;;12.50;99.90;;;;;;5107989;28;20427;-66
2021/05/07 04:26:34;;;;;;;10.20;6.27;;;12.50;99.90;;;;;;5095280;28;20535;-66
2021/05/07 04:28:59;;;;;;;7.37;5.07;;;12.60;99.90;;;;;;5095368;28;20760;-66
2021/05/07 04:31:25;;;;;;;8.47;5.70;;;12.60;99.90;;;;;;5094860;28;20177;-66
2021/05/07 04:33:51;;;;;;;7.57;5.73;;;12.60;99.90;;;;;;5095042;28;20610;-66
2021/05/07 04:36:17;;;;;;;8.97;6.30;;;12.70;99.90;;;;;;5095534;28;20173;-67
2021/05/07 04:38:42;;;;;;;8.13;5.60;;;12.70;99.90;;;;;;5094814;28;20436;-66
2021/05/07 04:41:08;;;;;;;9.00;5.47;;;12.80;99.90;;;;;;5095283;28;20177;-67
2021/05/07 04:43:33;;;;;;;10.53;5.13;;;12.90;99.90;;;;;;5094670;28;20537;-67
2021/05/07 04:45:59;;;;;;;8.70;5.77;;;13.10;99.90;;;;;;5093437;28;20176;-66
2021/05/07 04:48:25;;;;;;;8.33;5.37;;;13.10;99.90;;;;;;5110267;28;20662;-66
2021/05/07 04:50:50;;;;;;;9.17;5.50;;;13.10;99.90;;;;;;5094869;28;20225;-68
2021/05/07 04:53:16;;;;;;;12.97;7.87;;;13.20;99.90;;;;;;5093592;28;20199;-68
2021/05/07 04:55:42;;;;;;;10.80;6.27;;;13.20;99.90;;;;;;5093342;28;20232;-68
2021/05/07 04:58:08;;;;;;;12.33;6.63;;;13.30;99.90;;;;;;5094737;28;20464;-67
2021/05/07 05:00:33;;;;;;;8.03;5.53;;;13.20;99.90;;;;;;5110106;28;20183;-67
2021/05/07 05:02:59;;;;;;;14.13;7.60;;;13.30;99.90;;;;;;5093161;28;20236;-68
2021/05/07 05:05:25;;;;;;;9.17;6.80;;;13.30;99.90;;;;;;5094521;28;20173;-66
2021/05/07 05:07:52;;;;;;;15.50;10.90;;;13.40;99.90;;;;;;5093067;28;20201;-67
2021/05/07 05:10:19;;;;;;;18.93;11.40;;;13.40;99.90;;;;;;5076487;28;20230;-67
2021/05/07 05:12:44;;;;;;;9.47;6.47;;;13.60;99.90;;;;;;5093258;28;20853;-67
2021/05/07 05:15:10;;;;;;;8.40;6.70;;;13.60;99.90;;;;;;5094360;28;20405;-67
2021/05/07 05:17:36;;;;;;;13.77;8.77;;;13.60;99.90;;;;;;5110602;28;20211;-67
2021/05/07 05:20:03;;;;;;;8.50;7.30;;;13.50;99.90;;;;;;5104797;28;20440;-69
2021/05/07 05:22:28;;;;;;;10.23;6.53;;;13.60;99.90;;;;;;5091752;28;20204;-67
2021/05/07 05:24:54;;;;;;;8.13;5.70;;;13.60;99.90;;;;;;5096599;28;20440;-68
2021/05/07 05:27:19;;;;;;;10.77;6.27;;;13.70;99.90;;;;;;5106334;28;20217;-68
2021/05/07 05:29:54;;;;;;;29.73;15.90;;;13.80;99.90;;;;;;5102643;28;20170;-68
2021/05/07 05:32:20;;;;;;;45.77;29.10;;;13.80;99.90;;;;;;5114114;28;20893;-67
2021/05/07 05:34:45;;;;;;;7.50;5.53;;;13.80;99.90;;;;;;5104709;28;20663;-69
2021/05/07 05:37:11;;;;;;;9.30;5.90;;;13.90;99.90;;;;;;5093368;28;20346;-67
2021/05/07 05:39:36;;;;;;;8.70;6.87;;;14.00;99.90;;;;;;5091279;28;20285;-68
2021/05/07 05:42:02;;;;;;;10.00;5.87;;;14.20;99.90;;;;;;5094172;28;20191;-69
2021/05/07 05:44:28;;;;;;;9.77;6.10;;;14.30;99.90;;;;;;5109758;28;20207;-67
2021/05/07 05:46:55;;;;;;;24.73;13.67;;;14.30;99.90;;;;;;5114375;28;20625;-66
2021/05/07 05:49:20;;;;;;;15.90;12.17;;;14.40;99.90;;;;;;5112332;28;20196;-68
2021/05/07 05:51:46;;;;;;;13.87;9.83;;;14.40;99.90;;;;;;5107262;27;20506;-67
2021/05/07 05:54:11;;;;;;;31.90;19.30;;;14.50;99.90;;;;;;5091806;28;20231;-68
2021/05/07 05:56:37;;;;;;;18.40;12.00;;;14.60;99.90;;;;;;5117448;27;20646;-67
2021/05/07 05:59:03;;;;;;;9.00;5.97;;;14.60;99.90;;;;;;5129234;27;20581;-69
2021/05/07 06:01:29;;;;;;;11.83;8.90;;;14.70;99.90;;;;;;5122540;27;20492;-67
2021/05/07 06:03:55;;;;;;;10.33;5.93;;;14.70;99.90;;;;;;5131072;27;20813;-69
2021/05/07 06:06:20;;;;;;;18.97;14.50;;;14.80;99.90;;;;;;5123558;28;20190;-67
2021/05/07 06:08:46;;;;;;;14.83;11.37;;;14.80;99.90;;;;;;5115583;28;20200;-68
2021/05/07 06:11:11;;;;;;;31.23;22.00;;;14.90;99.90;;;;;;5126086;28;20596;-67
2021/05/07 06:13:38;;;;;;;30.67;22.57;;;14.90;99.90;;;;;;5120793;28;20262;-69
2021/05/07 06:16:04;;;;;;;12.07;9.37;;;15.00;99.90;;;;;;5119874;28;20188;-67
2021/05/07 06:18:29;;;;;;;16.17;10.00;;;15.10;99.90;;;;;;5097978;28;20934;-67
2021/05/07 06:20:56;;;;;;;20.20;13.60;;;15.10;99.90;;;;;;5117953;28;20742;-67
2021/05/07 06:23:22;;;;;;;33.50;20.47;;;15.20;99.90;;;;;;5110072;28;20195;-69
2021/05/07 06:25:48;;;;;;;32.37;20.03;;;15.10;99.90;;;;;;5122823;28;20440;-67
2021/05/07 06:28:14;;;;;;;24.67;16.07;;;15.20;99.90;;;;;;5117745;28;20592;-68
2021/05/07 06:30:39;;;;;;;36.63;21.10;;;15.20;99.90;;;;;;5116563;28;20581;-68
2021/05/07 06:33:05;;;;;;;19.77;11.83;;;15.40;99.90;;;;;;5112938;28;20195;-69
2021/05/07 06:35:31;;;;;;;11.10;6.73;;;15.30;99.90;;;;;;5123404;28;20181;-69
2021/05/07 06:37:59;;;;;;;12.13;7.10;;;15.40;99.90;;;;;;5117829;28;20234;-69
2021/05/07 06:40:24;;;;;;;12.20;6.00;;;15.40;99.90;;;;;;5115590;28;20522;-67
2021/05/07 06:42:50;;;;;;;6.90;5.20;;;15.40;99.90;;;;;;5111386;28;20527;-67
2021/05/07 06:45:16;;;;;;;7.90;5.00;;;15.40;99.90;;;;;;5110224;28;20183;-70
2021/05/07 06:47:42;;;;;;;10.50;6.10;;;15.30;99.90;;;;;;5122015;28;20203;-68
2021/05/07 06:50:11;;;;;;;6.93;5.20;;;15.40;99.90;;;;;;5112142;28;20493;-70
2021/05/07 06:52:37;;;;;;;8.40;6.30;;;15.40;99.90;;;;;;5121780;28;20435;-67
2021/05/07 06:55:05;;;;;;;7.77;5.60;;;15.40;99.90;;;;;;5119348;28;20441;-71
2021/05/07 06:57:30;;;;;;;9.87;6.47;;;15.50;99.90;;;;;;5101926;28;20649;-68
2021/05/07 06:59:56;;;;;;;8.23;5.73;;;15.40;99.90;;;;;;5117858;27;20511;-67
2021/05/07 07:02:21;;;;;;;9.20;5.63;;;15.40;99.90;;;;;;5123685;27;20662;-69
2021/05/07 07:04:47;;;;;;;6.70;6.00;;;15.40;99.90;;;;;;5121271;27;20190;-67
2021/05/07 07:07:14;;;;;;;8.30;7.30;;;15.40;99.90;;;;;;5117964;27;20179;-70
2021/05/07 07:09:40;;;;;;;11.50;6.60;;;15.30;99.90;;;;;;5121214;27;20228;-67
2021/05/07 07:12:07;;;;;;;10.50;6.97;;;15.30;99.90;;;;;;5125264;27;20424;-67
2021/05/07 07:14:38;;;;;;;17.90;11.23;;;15.30;99.90;;;;;;5105879;28;20820;-68
2021/05/07 07:17:05;;;;;;;13.90;9.40;;;15.40;99.90;;;;;;5131516;27;20469;-70
2021/05/07 07:19:30;;;;;;;10.00;7.30;;;15.30;99.90;;;;;;5126267;27;20439;-69
2021/05/07 07:21:56;;;;;;;11.53;7.13;;;15.20;99.90;;;;;;5129949;27;20476;-67
2021/05/07 07:24:22;;;;;;;6.70;5.30;;;15.20;99.90;;;;;;5127185;27;20264;-69
2021/05/07 07:26:47;;;;;;;12.40;8.13;;;15.30;99.90;;;;;;5105985;27;20176;-67
2021/05/07 07:29:13;;;;;;;45.00;19.57;;;15.30;99.90;;;;;;5118733;27;20204;-68
2021/05/07 07:31:38;;;;;;;33.30;16.70;;;15.30;99.90;;;;;;5123531;27;20184;-69
2021/05/07 07:34:04;;;;;;;10.27;7.30;;;15.30;99.90;;;;;;5125251;27;20287;-67
2021/05/07 07:36:30;;;;;;;7.50;6.03;;;15.20;99.90;;;;;;5100595;27;20215;-67
2021/05/07 07:38:55;;;;;;;11.53;7.27;;;15.20;99.90;;;;;;5123539;27;20438;-69
2021/05/07 07:41:22;;;;;;;9.87;6.93;;;15.10;99.90;;;;;;5098592;28;20188;-69
2021/05/07 07:43:49;;;;;;;13.87;10.10;;;15.30;99.90;;;;;;5125508;27;20202;-69
2021/05/07 07:46:14;;;;;;;10.23;7.77;;;14.80;99.90;;;;;;5116514;28;20561;-67
2021/05/07 07:48:41;;;;;;;10.27;7.20;;;14.70;99.90;;;;;;5111283;27;20468;-68
2021/05/07 07:51:07;;;;;;;11.30;7.20;;;14.70;99.90;;;;;;5137337;27;20530;-68
2021/05/07 07:53:33;;;;;;;11.63;7.67;;;14.80;99.90;;;;;;5121697;27;20438;-67
2021/05/07 07:55:58;;;;;;;14.00;8.13;;;14.80;99.90;;;;;;5124853;27;20220;-67
2021/05/07 07:58:25;;;;;;;10.23;7.60;;;14.80;99.90;;;;;;5132032;27;20226;-67
2021/05/07 08:00:51;;;;;;;11.90;7.93;;;14.70;99.90;;;;;;5125528;27;20428;-66
2021/05/07 08:03:16;;;;;;;12.67;8.40;;;14.60;99.90;;;;;;5113380;27;20811;-68
2021/05/07 08:05:45;;;;;;;11.73;8.10;;;14.70;99.90;;;;;;5121148;27;20187;-67
2021/05/07 08:08:11;;;;;;;9.60;7.37;;;14.70;99.90;;;;;;5119330;27;20215;-67
2021/05/07 08:10:36;;;;;;;8.97;7.67;;;14.70;99.90;;;;;;5115860;28;20472;-67
2021/05/07 08:13:02;;;;;;;10.50;7.73;;;14.70;99.90;;;;;;5106799;28;20227;-67
2021/05/07 08:15:28;;;;;;;12.10;8.43;;;14.80;99.90;;;;;;5114900;27;20181;-67
2021/05/07 08:17:54;;;;;;;8.77;7.37;;;14.70;99.90;;;;;;5114324;28;20218;-67
2021/05/07 08:20:21;;;;;;;10.90;7.33;;;14.70;99.90;;;;;;5131553;27;20179;-67
2021/05/07 08:22:48;;;;;;;11.77;7.63;;;14.70;99.90;;;;;;5123747;27;20462;-69
2021/05/07 08:25:14;;;;;;;10.10;6.87;;;14.60;99.90;;;;;;5125931;27;20427;-67
2021/05/07 08:27:41;;;;;;;9.47;7.40;;;14.70;99.90;;;;;;5131802;27;20487;-68
2021/05/07 08:30:07;;;;;;;9.93;7.60;;;14.70;99.90;;;;;;5125415;27;20770;-68
2021/05/07 08:32:34;;;;;;;7.90;7.10;;;14.70;99.90;;;;;;5129872;27;20912;-66
2021/05/07 08:35:00;;;;;;;10.30;6.90;;;14.60;99.90;;;;;;5118261;27;20444;-69
2021/05/07 08:37:26;;;;;;;9.40;7.33;;;14.60;99.90;;;;;;5118285;27;20800;-68
2021/05/07 08:39:52;;;;;;;8.50;6.80;;;14.60;99.90;;;;;;5123493;27;20432;-67
2021/05/07 08:42:18;;;;;;;10.97;7.13;;;14.60;99.90;;;;;;5126059;27;20473;-68
2021/05/07 08:44:44;;;;;;;12.97;8.33;;;14.60;99.90;;;;;;5096468;28;20465;-67
2021/05/07 08:47:10;;;;;;;10.33;7.37;;;14.50;99.90;;;;;;5112212;28;20396;-67
2021/05/07 08:49:36;;;;;;;7.03;6.03;;;14.50;99.90;;;;;;5114418;27;20567;-69
2021/05/07 08:52:02;;;;;;;8.80;6.87;;;14.50;99.90;;;;;;5093947;27;20218;-69
2021/05/07 08:54:28;;;;;;;8.50;7.07;;;14.40;99.90;;;;;;5116394;27;21264;-67
2021/05/07 08:56:55;;;;;;;10.17;7.30;;;14.40;99.90;;;;;;5114903;27;20511;-69
2021/05/07 08:59:21;;;;;;;14.77;7.60;;;14.40;99.90;;;;;;5098079;27;20432;-68
2021/05/07 09:01:51;;;;;;;11.27;6.70;;;14.40;99.90;;;;;;5116790;27;20816;-68
2021/05/07 09:04:19;;;;;;;7.60;5.97;;;14.30;99.90;;;;;;5119949;27;20442;-69
2021/05/07 09:06:53;;;;;;;9.47;6.57;;;14.40;99.90;;;;;;5115787;27;20436;-69
2021/05/07 09:09:29;;;;;;;7.90;6.70;;;14.30;99.90;;;;;;5116911;27;20431;-69
2021/05/07 09:11:56;;;;;;;8.07;6.37;;;14.20;99.90;;;;;;5126481;27;20908;-68
2021/05/07 09:14:23;;;;;;;7.93;6.20;;;14.20;99.90;;;;;;5122860;27;20781;-67
2021/05/07 09:17:00;;;;;;;7.50;5.10;;;14.30;99.90;;;;;;5113720;27;20467;-68
2021/05/07 09:19:31;;;;;;;7.20;5.90;;;14.40;99.90;;;;;;5119842;27;21020;-67
2021/05/07 09:21:58;;;;;;;5.90;5.17;;;14.30;99.90;;;;;;5096709;28;20526;-68
2021/05/07 09:24:34;;;;;;;7.93;5.40;;;14.30;99.90;;;;;;5114419;28;20507;-68
2021/05/07 09:27:00;;;;;;;11.67;5.73;;;14.20;99.90;;;;;;5119275;27;20929;-68
2021/05/07 09:29:27;;;;;;;12.10;6.10;;;14.10;99.90;;;;;;5116514;27;20446;-68
2021/05/07 09:31:54;;;;;;;7.30;5.57;;;14.10;99.90;;;;;;5125705;27;20916;-69
2021/05/07 09:34:22;;;;;;;8.93;5.40;;;14.20;99.90;;;;;;5131681;27;20559;-67
2021/05/07 09:36:49;;;;;;;7.27;5.57;;;14.20;99.90;;;;;;5128722;27;20922;-68
2021/05/07 09:39:17;;;;;;;5.77;5.00;;;14.10;99.90;;;;;;5127139;27;20833;-67
2021/05/07 09:41:45;;;;;;;7.53;4.20;;;14.00;99.90;;;;;;5135465;27;20426;-67
2021/05/07 09:44:21;;;;;;;5.03;4.40;;;14.00;99.90;;;;;;5134671;27;20951;-68
2021/05/07 09:46:48;;;;;;;6.10;3.80;;;14.00;99.90;;;;;;5126383;27;20427;-68
2021/05/07 09:49:30;;;;;;;6.03;4.17;;;13.90;99.90;;;;;;5119912;27;20571;-67
2021/05/07 09:51:57;;;;;;;3.77;3.17;;;14.00;99.90;;;;;;5117222;27;20850;-67
2021/05/07 09:54:23;;;;;;;3.40;2.80;;;14.10;99.90;;;;;;5115645;27;20510;-68
2021/05/07 09:56:49;;;;;;;6.63;2.60;;;14.20;99.90;;;;;;5124812;27;20486;-67
2021/05/07 09:59:15;;;;;;;4.90;2.83;;;14.20;99.90;;;;;;5122504;27;20435;-68
2021/05/07 10:01:48;;;;;;;4.33;2.90;;;14.10;99.90;;;;;;5126321;27;20274;-69
2021/05/07 10:04:14;;;;;;;4.30;3.60;;;14.10;99.90;;;;;;5129082;27;20435;-68
2021/05/07 10:06:40;;;;;;;4.57;3.70;;;14.10;99.90;;;;;;5117390;27;20506;-68
2021/05/07 10:09:07;;;;;;;5.00;3.90;;;14.10;99.90;;;;;;5112017;28;20940;-68
2021/05/07 10:11:42;;;;;;;4.27;3.27;;;14.10;99.90;;;;;;5119480;28;20426;-67
2021/05/07 10:14:14;;;;;;;4.67;3.37;;;14.20;99.90;;;;;;5112736;27;20429;-67
2021/05/07 10:16:40;;;;;;;7.40;4.60;;;14.20;99.90;;;;;;5132327;28;20555;-68
2021/05/07 10:19:08;;;;;;;4.67;3.17;;;14.20;99.90;;;;;;5125690;28;20428;-68
2021/05/07 10:21:37;;;;;;;5.13;3.47;;;14.10;99.90;;;;;;5094828;28;20784;-68
2021/05/07 10:24:04;;;;;;;4.20;2.80;;;14.30;99.90;;;;;;5120002;28;20442;-67
2021/05/07 10:26:34;;;;;;;3.10;2.87;;;14.40;99.90;;;;;;5127213;28;20437;-67
2021/05/07 10:29:00;;;;;;;7.03;2.90;;;14.40;99.90;;;;;;5112180;27;20473;-68
2021/05/07 10:31:25;;;;;;;2.73;2.50;;;14.40;99.90;;;;;;5137826;27;20759;-68
2021/05/07 10:34:02;;;;;;;3.70;2.40;;;14.30;99.90;;;;;;5122892;27;20214;-70
2021/05/07 10:36:41;;;;;;;3.67;2.03;;;14.20;99.90;;;;;;5126946;27;20179;-68
2021/05/07 10:39:26;;;;;;;2.50;1.83;;;14.20;99.90;;;;;;5102124;27;20987;-69
2021/05/07 10:41:54;;;;;;;2.63;2.00;;;14.10;99.90;;;;;;5124147;27;20447;-68
2021/05/07 10:44:21;;;;;;;2.47;2.27;;;14.10;99.90;;;;;;5115049;27;20478;-68
2021/05/07 10:47:06;;;;;;;2.70;2.40;;;14.20;99.90;;;;;;5106418;27;20423;-69
2021/05/07 10:49:42;;;;;;;4.00;2.30;;;14.40;99.90;;;;;;5131873;27;20443;-68
2021/05/07 10:52:10;;;;;;;4.80;2.23;;;14.10;99.90;;;;;;5121034;27;20458;-69
2021/05/07 10:54:48;;;;;;;4.80;2.37;;;14.10;99.90;;;;;;5104420;28;21033;-68
2021/05/07 10:57:22;;;;;;;3.27;2.33;;;14.00;99.90;;;;;;5109209;27;20538;-68
2021/05/07 10:59:55;;;;;;;4.30;2.93;;;14.00;99.90;;;;;;5119219;27;20419;-67
2021/05/07 11:02:21;;;;;;;3.30;2.77;;;14.20;99.90;;;;;;5097462;27;20822;-69
2021/05/07 11:04:48;;;;;;;5.20;2.80;;;14.20;99.90;;;;;;5134238;27;20452;-67
2021/05/07 11:07:32;;;;;;;3.30;2.80;;;14.30;99.90;;;;;;5132475;27;20411;-67
2021/05/07 11:10:09;;;;;;;5.70;2.50;;;14.40;99.90;;;;;;5116285;27;20989;-68
2021/05/07 11:12:37;;;;;;;3.90;3.10;;;14.30;99.90;;;;;;5127253;27;20843;-68
2021/05/07 11:15:05;;;;;;;5.10;3.20;;;14.20;99.90;;;;;;5137543;27;20922;-68
2021/05/07 11:17:30;;;;;;;5.57;3.47;;;14.10;99.90;;;;;;5137362;27;20561;-69
2021/05/07 11:19:56;;;;;;;5.47;3.57;;;14.10;99.90;;;;;;5118594;27;20517;-67
2021/05/07 11:22:25;;;;;;;4.57;3.40;;;14.10;99.90;;;;;;5103638;27;20206;-67
2021/05/07 11:24:52;;;;;;;2.90;2.40;;;14.10;99.90;;;;;;5108182;27;20319;-69
2021/05/07 11:27:23;;;;;;;4.93;3.07;;;14.10;99.90;;;;;;5109685;27;21011;-67
2021/05/07 11:30:11;;;;;;;5.20;2.90;;;14.10;99.90;;;;;;5109082;27;20846;-67
2021/05/07 11:32:37;;;;;;;4.00;3.50;;;14.10;99.90;;;;;;5115621;27;20467;-70
2021/05/07 11:35:10;;;;;;;6.50;4.37;;;14.10;99.90;;;;;;5120659;27;20843;-69
2021/05/07 11:37:38;;;;;;;19.10;15.13;;;14.20;99.90;;;;;;5126843;27;20916;-67
2021/05/07 11:40:05;;;;;;;12.43;9.93;;;14.20;99.90;;;;;;5121637;27;20436;-69
2021/05/07 11:42:41;;;;;;;7.10;5.23;;;14.30;99.90;;;;;;5118083;27;20504;-67
2021/05/07 11:45:18;;;;;;;4.97;3.87;;;14.40;99.90;;;;;;5120993;27;20459;-67
2021/05/07 11:47:44;;;;;;;11.10;2.77;;;14.40;99.90;;;;;;5122844;27;20428;-68
2021/05/07 11:50:13;;;;;;;2.77;2.47;;;14.40;99.90;;;;;;5121414;27;20446;-68
2021/05/07 11:52:41;;;;;;;3.40;2.73;;;14.40;99.90;;;;;;5117475;27;20500;-68
2021/05/07 11:55:28;;;;;;;3.07;2.87;;;14.50;99.90;;;;;;5120512;27;20966;-70
2021/05/07 11:58:06;;;;;;;4.83;4.33;;;14.40;99.90;;;;;;5116579;27;20510;-68
2021/05/07 12:00:33;;;;;;;4.33;3.93;;;14.40;99.90;;;;;;5117437;27;20439;-68
2021/05/07 12:02:59;;;;;;;4.33;3.00;;;14.50;99.90;;;;;;5120727;27;20431;-68
2021/05/07 12:05:45;;;;;;;4.90;2.90;;;14.50;99.90;;;;;;5133574;27;20502;-68
2021/05/07 12:08:11;;;;;;;7.33;3.33;;;14.50;99.90;;;;;;5118275;27;20199;-68
2021/05/07 12:10:41;;;;;;;3.90;2.70;;;14.50;99.90;;;;;;5112472;27;20431;-68
2021/05/07 12:13:09;;;;;;;2.73;2.53;;;14.50;99.90;;;;;;5118593;27;20444;-69
2021/05/07 12:15:47;;;;;;;2.63;2.43;;;14.30;99.90;;;;;;5117602;27;20876;-68
2021/05/07 12:18:25;;;;;;;2.77;2.30;;;14.40;99.90;;;;;;5113119;27;20474;-68
2021/05/07 12:20:55;;;;;;;2.50;2.30;;;14.40;99.90;;;;;;5118593;27;20428;-69
2021/05/07 12:23:22;;;;;;;4.20;3.30;;;15.10;99.90;;;;;;5109051;27;20455;-69
2021/05/07 12:25:48;;;;;;;4.50;3.13;;;15.60;99.90;;;;;;5120444;27;20475;-68
2021/05/07 12:28:22;;;;;;;4.20;2.70;;;15.80;99.90;;;;;;5119484;27;20967;-70
2021/05/07 12:30:49;;;;;;;3.70;2.40;;;16.00;99.90;;;;;;5121097;27;20989;-70
2021/05/07 12:33:24;;;;;;;9.60;2.80;;;16.30;99.90;;;;;;5120746;27;20436;-69
2021/05/07 12:35:57;;;;;;;6.93;3.03;;;16.90;99.90;;;;;;5120497;27;20513;-69
2021/05/07 12:38:26;;;;;;;6.03;2.80;;;17.20;99.90;;;;;;5097640;28;21042;-68
2021/05/07 12:41:01;;;;;;;4.80;2.70;;;17.40;99.90;;;;;;5124890;27;20431;-68
2021/05/07 12:43:28;;;;;;;4.00;3.07;;;17.30;99.90;;;;;;5123938;27;20525;-68
2021/05/07 12:45:54;;;;;;;3.10;2.80;;;17.40;99.90;;;;;;5099345;28;20432;-68